sensor_id;sensor_type;location;lat;lon;timestamp;P1;durP1;ratioP1;P2;durP2;ratioP2
63008;SDS011;49099;28.428;-16.488;2023-05-23T00:02:11;16.45;;;4.43;;
63008;SDS011;49099;28.428;-16.488;2023-05-23T00:04:39;18.67;;;4.30;;
63008;SDS011;49099;28.428;-16.488;2023-05-23T00:07:06;21.58;;;4.70;;
63008;SDS011;49099;28.428;-16.488;2023-05-23T00:09:33;13.13;;;3.33;;
63008;SDS011;49099;28.428;-16.488;2023-05-23T00:12:00;14.98;;;3.28;;
63008;SDS011;49099;28.428;-16.488;2023-05-23T00:14:28;21.23;;;4.30;;
63008;SDS011;49099;28.428;-16.488;2023-05-23T00:16:59;18.30;;;4.10;;
63008;SDS011;49099;28.428;-16.488;2023-05-23T00:19:29;24.48;;;4.75;;
63008;SDS011;49099;28.428;-16.488;2023-05-23T00:21:56;17.23;;;4.85;;
63008;SDS011;49099;28.428;-16.488;2023-05-23T00:24:24;18.88;;;4.32;;
63008;SDS011;49099;28.428;-16.488;2023-05-23T00:26:51;17.60;;;4.28;;
63008;SDS011;49099;28.428;-16.488;2023-05-23T00:29:18;16.45;;;3.97;;
63008;SDS011;49099;28.428;-16.488;2023-05-23T00:31:49;17.52;;;4.05;;
63008;SDS011;49099;28.428;-16.488;2023-05-23T00:34:16;19.35;;;4.88;;
63008;SDS011;49099;28.428;-16.488;2023-05-23T00:36:44;15.05;;;3.80;;
63008;SDS011;49099;28.428;-16.488;2023-05-23T00:39:13;14.50;;;3.80;;
63008;SDS011;49099;28.428;-16.488;2023-05-23T00:41:47;16.27;;;4.20;;
63008;SDS011;49099;28.428;-16.488;2023-05-23T00:44:18;20.60;;;4.38;;
63008;SDS011;49099;28.428;-16.488;2023-05-23T00:46:48;23.80;;;4.47;;
63008;SDS011;49099;28.428;-16.488;2023-05-23T00:49:19;25.77;;;5.00;;
63008;SDS011;49099;28.428;-16.488;2023-05-23T00:51:47;25.05;;;4.50;;
63008;SDS011;49099;28.428;-16.488;2023-05-23T00:54:17;16.17;;;3.85;;
63008;SDS011;49099;28.428;-16.488;2023-05-23T00:56:46;16.98;;;3.95;;
63008;SDS011;49099;28.428;-16.488;2023-05-23T00:59:14;17.98;;;4.32;;
63008;SDS011;49099;28.428;-16.488;2023-05-23T01:01:42;15.85;;;3.92;;
63008;SDS011;49099;28.428;-16.488;2023-05-23T01:04:13;22.70;;;4.15;;
63008;SDS011;49099;28.428;-16.488;2023-05-23T01:06:42;15.73;;;3.90;;
63008;SDS011;49099;28.428;-16.488;2023-05-23T01:09:13;19.75;;;3.97;;
63008;SDS011;49099;28.428;-16.488;2023-05-23T01:11:45;16.42;;;4.30;;
63008;SDS011;49099;28.428;-16.488;2023-05-23T01:14:55;18.02;;;3.97;;
63008;SDS011;49099;28.428;-16.488;2023-05-23T01:17:33;17.50;;;3.67;;
63008;SDS011;49099;28.428;-16.488;2023-05-23T01:20:39;17.48;;;3.95;;
63008;SDS011;49099;28.428;-16.488;2023-05-23T01:23:23;19.38;;;4.07;;
63008;SDS011;49099;28.428;-16.488;2023-05-23T01:26:15;16.35;;;4.03;;
63008;SDS011;49099;28.428;-16.488;2023-05-23T01:29:13;15.02;;;3.55;;
63008;SDS011;49099;28.428;-16.488;2023-05-23T01:31:45;14.82;;;3.80;;
63008;SDS011;49099;28.428;-16.488;2023-05-23T01:34:15;19.77;;;4.38;;
63008;SDS011;49099;28.428;-16.488;2023-05-23T01:36:44;16.73;;;4.00;;
63008;SDS011;49099;28.428;-16.488;2023-05-23T01:39:15;17.02;;;4.00;;
63008;SDS011;49099;28.428;-16.488;2023-05-23T01:41:43;16.45;;;3.85;;
63008;SDS011;49099;28.428;-16.488;2023-05-23T01:44:10;20.00;;;4.38;;
63008;SDS011;49099;28.428;-16.488;2023-05-23T01:46:37;21.35;;;3.88;;
63008;SDS011;49099;28.428;-16.488;2023-05-23T01:49:07;20.50;;;4.90;;
63008;SDS011;49099;28.428;-16.488;2023-05-23T01:51:37;23.92;;;4.85;;
63008;SDS011;49099;28.428;-16.488;2023-05-23T01:54:06;21.05;;;4.40;;
63008;SDS011;49099;28.428;-16.488;2023-05-23T01:56:33;18.30;;;3.90;;
63008;SDS011;49099;28.428;-16.488;2023-05-23T01:59:01;26.58;;;4.95;;
63008;SDS011;49099;28.428;-16.488;2023-05-23T02:01:29;31.05;;;5.15;;
63008;SDS011;49099;28.428;-16.488;2023-05-23T02:03:57;19.17;;;4.35;;
63008;SDS011;49099;28.428;-16.488;2023-05-23T02:06:24;19.35;;;4.45;;
63008;SDS011;49099;28.428;-16.488;2023-05-23T02:08:51;19.20;;;4.40;;
63008;SDS011;49099;28.428;-16.488;2023-05-23T02:11:18;16.88;;;4.82;;
63008;SDS011;49099;28.428;-16.488;2023-05-23T02:13:45;17.83;;;3.92;;
63008;SDS011;49099;28.428;-16.488;2023-05-23T02:16:13;19.65;;;3.95;;
63008;SDS011;49099;28.428;-16.488;2023-05-23T02:18:40;19.10;;;4.15;;
63008;SDS011;49099;28.428;-16.488;2023-05-23T02:21:07;18.85;;;4.22;;
63008;SDS011;49099;28.428;-16.488;2023-05-23T02:23:34;14.25;;;3.83;;
63008;SDS011;49099;28.428;-16.488;2023-05-23T02:26:01;19.05;;;4.28;;
63008;SDS011;49099;28.428;-16.488;2023-05-23T02:28:29;15.50;;;3.50;;
63008;SDS011;49099;28.428;-16.488;2023-05-23T02:30:56;13.90;;;3.30;;
63008;SDS011;49099;28.428;-16.488;2023-05-23T02:33:23;19.70;;;4.07;;
63008;SDS011;49099;28.428;-16.488;2023-05-23T02:35:51;18.23;;;3.70;;
63008;SDS011;49099;28.428;-16.488;2023-05-23T02:38:18;11.05;;;3.88;;
63008;SDS011;49099;28.428;-16.488;2023-05-23T02:40:46;24.88;;;4.22;;
63008;SDS011;49099;28.428;-16.488;2023-05-23T02:43:13;14.82;;;3.83;;
63008;SDS011;49099;28.428;-16.488;2023-05-23T02:45:41;14.25;;;3.60;;
63008;SDS011;49099;28.428;-16.488;2023-05-23T02:48:08;13.98;;;3.35;;
63008;SDS011;49099;28.428;-16.488;2023-05-23T02:50:37;12.90;;;3.97;;
63008;SDS011;49099;28.428;-16.488;2023-05-23T02:53:04;17.92;;;4.13;;
63008;SDS011;49099;28.428;-16.488;2023-05-23T02:55:31;16.20;;;3.92;;
63008;SDS011;49099;28.428;-16.488;2023-05-23T02:57:59;20.98;;;3.80;;
63008;SDS011;49099;28.428;-16.488;2023-05-23T03:00:26;14.93;;;3.95;;
63008;SDS011;49099;28.428;-16.488;2023-05-23T03:02:53;15.27;;;3.45;;
63008;SDS011;49099;28.428;-16.488;2023-05-23T03:05:20;15.95;;;4.25;;
63008;SDS011;49099;28.428;-16.488;2023-05-23T03:07:47;19.58;;;4.72;;
63008;SDS011;49099;28.428;-16.488;2023-05-23T03:10:15;11.48;;;3.25;;
63008;SDS011;49099;28.428;-16.488;2023-05-23T03:12:42;15.20;;;3.50;;
63008;SDS011;49099;28.428;-16.488;2023-05-23T03:15:09;11.68;;;3.67;;
63008;SDS011;49099;28.428;-16.488;2023-05-23T03:17:37;16.30;;;3.70;;
63008;SDS011;49099;28.428;-16.488;2023-05-23T03:20:06;12.40;;;3.83;;
63008;SDS011;49099;28.428;-16.488;2023-05-23T03:22:35;12.45;;;3.45;;
63008;SDS011;49099;28.428;-16.488;2023-05-23T03:25:02;13.73;;;3.33;;
63008;SDS011;49099;28.428;-16.488;2023-05-23T03:27:30;17.77;;;3.78;;
63008;SDS011;49099;28.428;-16.488;2023-05-23T03:29:57;13.93;;;3.63;;
63008;SDS011;49099;28.428;-16.488;2023-05-23T03:32:24;12.00;;;3.30;;
63008;SDS011;49099;28.428;-16.488;2023-05-23T03:34:51;14.68;;;3.47;;
63008;SDS011;49099;28.428;-16.488;2023-05-23T03:37:19;14.98;;;3.63;;
63008;SDS011;49099;28.428;-16.488;2023-05-23T03:39:46;13.63;;;3.13;;
63008;SDS011;49099;28.428;-16.488;2023-05-23T03:42:13;13.30;;;3.17;;
63008;SDS011;49099;28.428;-16.488;2023-05-23T03:44:40;15.98;;;4.30;;
63008;SDS011;49099;28.428;-16.488;2023-05-23T03:47:08;12.75;;;3.40;;
63008;SDS011;49099;28.428;-16.488;2023-05-23T03:49:35;11.85;;;3.22;;
63008;SDS011;49099;28.428;-16.488;2023-05-23T03:52:02;21.65;;;4.20;;
63008;SDS011;49099;28.428;-16.488;2023-05-23T03:54:29;16.70;;;3.95;;
63008;SDS011;49099;28.428;-16.488;2023-05-23T03:56:57;28.40;;;4.63;;
63008;SDS011;49099;28.428;-16.488;2023-05-23T03:59:24;21.25;;;4.82;;
63008;SDS011;49099;28.428;-16.488;2023-05-23T04:01:51;21.60;;;4.50;;
63008;SDS011;49099;28.428;-16.488;2023-05-23T04:04:18;15.80;;;4.25;;
63008;SDS011;49099;28.428;-16.488;2023-05-23T04:06:46;20.02;;;3.92;;
63008;SDS011;49099;28.428;-16.488;2023-05-23T04:09:13;22.00;;;4.32;;
63008;SDS011;49099;28.428;-16.488;2023-05-23T04:11:41;18.70;;;3.75;;
63008;SDS011;49099;28.428;-16.488;2023-05-23T04:14:09;18.75;;;3.85;;
63008;SDS011;49099;28.428;-16.488;2023-05-23T04:16:36;17.02;;;4.03;;
63008;SDS011;49099;28.428;-16.488;2023-05-23T04:19:07;19.70;;;4.40;;
63008;SDS011;49099;28.428;-16.488;2023-05-23T04:21:34;16.65;;;4.07;;
63008;SDS011;49099;28.428;-16.488;2023-05-23T04:24:01;15.05;;;4.00;;
63008;SDS011;49099;28.428;-16.488;2023-05-23T04:26:29;12.38;;;3.55;;
63008;SDS011;49099;28.428;-16.488;2023-05-23T04:28:56;17.63;;;4.30;;
63008;SDS011;49099;28.428;-16.488;2023-05-23T04:31:24;15.38;;;4.25;;
63008;SDS011;49099;28.428;-16.488;2023-05-23T04:33:52;16.73;;;4.15;;
63008;SDS011;49099;28.428;-16.488;2023-05-23T04:36:19;15.75;;;3.40;;
63008;SDS011;49099;28.428;-16.488;2023-05-23T04:38:49;14.63;;;3.45;;
63008;SDS011;49099;28.428;-16.488;2023-05-23T04:41:16;16.75;;;3.65;;
63008;SDS011;49099;28.428;-16.488;2023-05-23T04:43:49;17.53;;;4.20;;
63008;SDS011;49099;28.428;-16.488;2023-05-23T04:46:20;12.48;;;3.50;;
63008;SDS011;49099;28.428;-16.488;2023-05-23T04:48:53;20.73;;;3.80;;
63008;SDS011;49099;28.428;-16.488;2023-05-23T04:51:24;17.60;;;3.67;;
63008;SDS011;49099;28.428;-16.488;2023-05-23T04:53:51;19.00;;;4.00;;
63008;SDS011;49099;28.428;-16.488;2023-05-23T04:56:18;11.43;;;3.17;;
63008;SDS011;49099;28.428;-16.488;2023-05-23T04:58:47;14.48;;;3.90;;
63008;SDS011;49099;28.428;-16.488;2023-05-23T05:01:14;15.02;;;3.58;;
63008;SDS011;49099;28.428;-16.488;2023-05-23T05:03:42;15.35;;;3.55;;
63008;SDS011;49099;28.428;-16.488;2023-05-23T05:06:09;16.15;;;3.53;;
63008;SDS011;49099;28.428;-16.488;2023-05-23T05:08:36;16.15;;;3.70;;
63008;SDS011;49099;28.428;-16.488;2023-05-23T05:11:03;17.50;;;3.80;;
63008;SDS011;49099;28.428;-16.488;2023-05-23T05:13:30;15.25;;;3.20;;
63008;SDS011;49099;28.428;-16.488;2023-05-23T05:15:57;19.20;;;4.10;;
63008;SDS011;49099;28.428;-16.488;2023-05-23T05:18:25;16.80;;;3.83;;
63008;SDS011;49099;28.428;-16.488;2023-05-23T05:20:53;15.25;;;3.47;;
63008;SDS011;49099;28.428;-16.488;2023-05-23T05:23:23;15.95;;;4.00;;
63008;SDS011;49099;28.428;-16.488;2023-05-23T05:25:51;19.73;;;3.70;;
63008;SDS011;49099;28.428;-16.488;2023-05-23T05:28:18;12.35;;;3.40;;
63008;SDS011;49099;28.428;-16.488;2023-05-23T05:30:47;15.50;;;3.05;;
63008;SDS011;49099;28.428;-16.488;2023-05-23T05:33:20;13.95;;;3.70;;
63008;SDS011;49099;28.428;-16.488;2023-05-23T05:35:50;14.55;;;3.65;;
63008;SDS011;49099;28.428;-16.488;2023-05-23T05:38:17;16.20;;;4.47;;
63008;SDS011;49099;28.428;-16.488;2023-05-23T05:40:45;15.98;;;3.95;;
63008;SDS011;49099;28.428;-16.488;2023-05-23T05:43:12;13.10;;;3.63;;
63008;SDS011;49099;28.428;-16.488;2023-05-23T05:45:39;18.42;;;3.78;;
63008;SDS011;49099;28.428;-16.488;2023-05-23T05:48:06;18.45;;;4.10;;
63008;SDS011;49099;28.428;-16.488;2023-05-23T05:50:33;14.43;;;3.20;;
63008;SDS011;49099;28.428;-16.488;2023-05-23T05:53:01;13.63;;;3.45;;
63008;SDS011;49099;28.428;-16.488;2023-05-23T05:55:29;14.82;;;3.58;;
63008;SDS011;49099;28.428;-16.488;2023-05-23T05:57:56;12.10;;;3.38;;
63008;SDS011;49099;28.428;-16.488;2023-05-23T06:00:23;17.85;;;3.95;;
63008;SDS011;49099;28.428;-16.488;2023-05-23T06:02:50;12.93;;;3.45;;
63008;SDS011;49099;28.428;-16.488;2023-05-23T06:05:20;13.25;;;3.53;;
63008;SDS011;49099;28.428;-16.488;2023-05-23T06:07:48;16.33;;;3.85;;
63008;SDS011;49099;28.428;-16.488;2023-05-23T06:10:16;16.90;;;3.30;;
63008;SDS011;49099;28.428;-16.488;2023-05-23T06:12:43;13.25;;;3.45;;
63008;SDS011;49099;28.428;-16.488;2023-05-23T06:15:11;14.07;;;4.00;;
63008;SDS011;49099;28.428;-16.488;2023-05-23T06:17:41;12.38;;;3.63;;
63008;SDS011;49099;28.428;-16.488;2023-05-23T06:20:10;15.20;;;4.05;;
63008;SDS011;49099;28.428;-16.488;2023-05-23T06:22:38;13.48;;;3.60;;
63008;SDS011;49099;28.428;-16.488;2023-05-23T06:25:06;12.07;;;3.58;;
63008;SDS011;49099;28.428;-16.488;2023-05-23T06:27:33;16.80;;;3.88;;
63008;SDS011;49099;28.428;-16.488;2023-05-23T06:30:01;12.57;;;3.75;;
63008;SDS011;49099;28.428;-16.488;2023-05-23T06:32:29;15.07;;;3.30;;
63008;SDS011;49099;28.428;-16.488;2023-05-23T06:34:56;14.55;;;3.83;;
63008;SDS011;49099;28.428;-16.488;2023-05-23T06:37:23;10.75;;;3.40;;
63008;SDS011;49099;28.428;-16.488;2023-05-23T06:39:50;16.58;;;3.70;;
63008;SDS011;49099;28.428;-16.488;2023-05-23T06:42:18;13.77;;;3.28;;
63008;SDS011;49099;28.428;-16.488;2023-05-23T06:44:45;15.35;;;4.03;;
63008;SDS011;49099;28.428;-16.488;2023-05-23T06:47:12;16.45;;;4.22;;
63008;SDS011;49099;28.428;-16.488;2023-05-23T06:49:39;13.23;;;3.72;;
63008;SDS011;49099;28.428;-16.488;2023-05-23T06:52:06;17.92;;;3.50;;
63008;SDS011;49099;28.428;-16.488;2023-05-23T06:54:33;15.15;;;3.72;;
63008;SDS011;49099;28.428;-16.488;2023-05-23T06:57:01;14.88;;;3.55;;
63008;SDS011;49099;28.428;-16.488;2023-05-23T06:59:28;10.18;;;3.33;;
63008;SDS011;49099;28.428;-16.488;2023-05-23T07:01:55;14.00;;;3.60;;
63008;SDS011;49099;28.428;-16.488;2023-05-23T07:04:22;14.38;;;3.80;;
63008;SDS011;49099;28.428;-16.488;2023-05-23T07:06:49;20.85;;;3.47;;
63008;SDS011;49099;28.428;-16.488;2023-05-23T07:09:18;17.27;;;3.28;;
63008;SDS011;49099;28.428;-16.488;2023-05-23T07:11:45;13.80;;;3.78;;
63008;SDS011;49099;28.428;-16.488;2023-05-23T07:14:13;13.82;;;3.92;;
63008;SDS011;49099;28.428;-16.488;2023-05-23T07:16:41;16.20;;;3.97;;
63008;SDS011;49099;28.428;-16.488;2023-05-23T07:19:08;16.38;;;4.07;;
63008;SDS011;49099;28.428;-16.488;2023-05-23T07:21:35;14.48;;;3.80;;
63008;SDS011;49099;28.428;-16.488;2023-05-23T07:24:04;18.60;;;5.00;;
63008;SDS011;49099;28.428;-16.488;2023-05-23T07:26:31;19.77;;;3.85;;
63008;SDS011;49099;28.428;-16.488;2023-05-23T07:28:59;18.45;;;3.80;;
63008;SDS011;49099;28.428;-16.488;2023-05-23T07:31:26;14.13;;;3.72;;
63008;SDS011;49099;28.428;-16.488;2023-05-23T07:33:53;14.20;;;3.20;;
63008;SDS011;49099;28.428;-16.488;2023-05-23T07:36:22;16.85;;;3.85;;
63008;SDS011;49099;28.428;-16.488;2023-05-23T07:38:50;20.00;;;3.58;;
63008;SDS011;49099;28.428;-16.488;2023-05-23T07:41:19;18.08;;;3.85;;
63008;SDS011;49099;28.428;-16.488;2023-05-23T07:43:46;14.90;;;3.20;;
63008;SDS011;49099;28.428;-16.488;2023-05-23T07:46:13;15.10;;;3.50;;
63008;SDS011;49099;28.428;-16.488;2023-05-23T07:48:41;18.15;;;3.22;;
63008;SDS011;49099;28.428;-16.488;2023-05-23T07:51:08;12.73;;;2.90;;
63008;SDS011;49099;28.428;-16.488;2023-05-23T07:53:35;11.50;;;3.00;;
63008;SDS011;49099;28.428;-16.488;2023-05-23T07:56:05;15.00;;;3.10;;
63008;SDS011;49099;28.428;-16.488;2023-05-23T07:58:33;12.02;;;3.42;;
63008;SDS011;49099;28.428;-16.488;2023-05-23T08:01:00;11.75;;;2.88;;
63008;SDS011;49099;28.428;-16.488;2023-05-23T08:03:29;12.30;;;3.30;;
63008;SDS011;49099;28.428;-16.488;2023-05-23T08:05:56;12.60;;;3.42;;
63008;SDS011;49099;28.428;-16.488;2023-05-23T08:08:23;12.15;;;3.05;;
63008;SDS011;49099;28.428;-16.488;2023-05-23T08:10:50;14.75;;;3.22;;
63008;SDS011;49099;28.428;-16.488;2023-05-23T08:13:17;9.70;;;3.05;;
63008;SDS011;49099;28.428;-16.488;2023-05-23T08:15:44;9.45;;;2.72;;
63008;SDS011;49099;28.428;-16.488;2023-05-23T08:18:11;15.15;;;3.08;;
63008;SDS011;49099;28.428;-16.488;2023-05-23T08:20:39;16.17;;;3.45;;
63008;SDS011;49099;28.428;-16.488;2023-05-23T08:23:07;11.57;;;2.83;;
63008;SDS011;49099;28.428;-16.488;2023-05-23T08:25:34;13.57;;;2.65;;
63008;SDS011;49099;28.428;-16.488;2023-05-23T08:28:02;13.60;;;3.13;;
63008;SDS011;49099;28.428;-16.488;2023-05-23T08:30:29;13.90;;;2.90;;
63008;SDS011;49099;28.428;-16.488;2023-05-23T08:32:58;12.82;;;3.10;;
63008;SDS011;49099;28.428;-16.488;2023-05-23T08:35:30;9.23;;;2.88;;
63008;SDS011;49099;28.428;-16.488;2023-05-23T08:38:04;9.82;;;3.17;;
63008;SDS011;49099;28.428;-16.488;2023-05-23T08:40:34;9.75;;;2.55;;
63008;SDS011;49099;28.428;-16.488;2023-05-23T08:43:02;15.50;;;3.17;;
63008;SDS011;49099;28.428;-16.488;2023-05-23T08:45:29;8.63;;;2.80;;
63008;SDS011;49099;28.428;-16.488;2023-05-23T08:47:58;10.77;;;3.03;;
63008;SDS011;49099;28.428;-16.488;2023-05-23T08:50:27;11.93;;;3.10;;
63008;SDS011;49099;28.428;-16.488;2023-05-23T08:52:56;17.25;;;3.20;;
63008;SDS011;49099;28.428;-16.488;2023-05-23T08:55:25;17.08;;;3.55;;
63008;SDS011;49099;28.428;-16.488;2023-05-23T08:57:54;18.45;;;3.67;;
63008;SDS011;49099;28.428;-16.488;2023-05-23T09:00:24;17.65;;;3.10;;
63008;SDS011;49099;28.428;-16.488;2023-05-23T09:02:52;17.50;;;3.72;;
63008;SDS011;49099;28.428;-16.488;2023-05-23T09:05:20;13.98;;;3.25;;
63008;SDS011;49099;28.428;-16.488;2023-05-23T09:07:48;13.40;;;3.20;;
63008;SDS011;49099;28.428;-16.488;2023-05-23T09:10:17;15.48;;;3.17;;
63008;SDS011;49099;28.428;-16.488;2023-05-23T09:12:48;14.73;;;3.40;;
63008;SDS011;49099;28.428;-16.488;2023-05-23T09:15:15;15.15;;;3.75;;
63008;SDS011;49099;28.428;-16.488;2023-05-23T09:17:43;15.57;;;3.10;;
63008;SDS011;49099;28.428;-16.488;2023-05-23T09:20:15;20.23;;;3.55;;
63008;SDS011;49099;28.428;-16.488;2023-05-23T09:22:47;27.30;;;3.90;;
63008;SDS011;49099;28.428;-16.488;2023-05-23T09:25:14;15.75;;;3.13;;
63008;SDS011;49099;28.428;-16.488;2023-05-23T09:27:42;11.18;;;2.80;;
63008;SDS011;49099;28.428;-16.488;2023-05-23T09:30:13;10.98;;;2.78;;
63008;SDS011;49099;28.428;-16.488;2023-05-23T09:32:41;10.57;;;2.80;;
63008;SDS011;49099;28.428;-16.488;2023-05-23T09:35:10;12.30;;;2.70;;
63008;SDS011;49099;28.428;-16.488;2023-05-23T09:37:41;13.63;;;3.00;;
63008;SDS011;49099;28.428;-16.488;2023-05-23T09:40:12;9.95;;;2.92;;
63008;SDS011;49099;28.428;-16.488;2023-05-23T09:42:42;10.35;;;2.85;;
63008;SDS011;49099;28.428;-16.488;2023-05-23T09:45:11;13.52;;;2.70;;
63008;SDS011;49099;28.428;-16.488;2023-05-23T09:47:45;15.65;;;3.70;;
63008;SDS011;49099;28.428;-16.488;2023-05-23T09:50:16;13.38;;;3.45;;
63008;SDS011;49099;28.428;-16.488;2023-05-23T09:52:43;12.07;;;2.75;;
63008;SDS011;49099;28.428;-16.488;2023-05-23T09:55:12;15.43;;;3.47;;
63008;SDS011;49099;28.428;-16.488;2023-05-23T09:57:40;12.93;;;3.22;;
63008;SDS011;49099;28.428;-16.488;2023-05-23T10:00:08;17.15;;;3.47;;
63008;SDS011;49099;28.428;-16.488;2023-05-23T10:08:06;11.20;;;2.72;;
63008;SDS011;49099;28.428;-16.488;2023-05-23T10:13:27;14.40;;;3.13;;
63008;SDS011;49099;28.428;-16.488;2023-05-23T10:15:58;14.57;;;3.22;;
63008;SDS011;49099;28.428;-16.488;2023-05-23T10:18:28;14.38;;;2.97;;
63008;SDS011;49099;28.428;-16.488;2023-05-23T10:21:01;12.55;;;3.20;;
63008;SDS011;49099;28.428;-16.488;2023-05-23T10:23:35;11.25;;;2.97;;
63008;SDS011;49099;28.428;-16.488;2023-05-23T10:26:03;14.93;;;3.35;;
63008;SDS011;49099;28.428;-16.488;2023-05-23T10:28:31;11.30;;;2.78;;
63008;SDS011;49099;28.428;-16.488;2023-05-23T10:30:59;15.15;;;3.45;;
63008;SDS011;49099;28.428;-16.488;2023-05-23T10:33:26;11.13;;;2.92;;
63008;SDS011;49099;28.428;-16.488;2023-05-23T10:36:05;10.60;;;2.65;;
63008;SDS011;49099;28.428;-16.488;2023-05-23T10:41:32;12.48;;;3.00;;
63008;SDS011;49099;28.428;-16.488;2023-05-23T10:49:18;15.88;;;3.40;;
63008;SDS011;49099;28.428;-16.488;2023-05-23T10:51:50;14.10;;;2.83;;
63008;SDS011;49099;28.428;-16.488;2023-05-23T10:54:18;14.85;;;3.10;;
63008;SDS011;49099;28.428;-16.488;2023-05-23T10:56:46;13.30;;;3.20;;
63008;SDS011;49099;28.428;-16.488;2023-05-23T10:59:28;10.20;;;2.92;;
63008;SDS011;49099;28.428;-16.488;2023-05-23T11:01:56;14.27;;;3.05;;
63008;SDS011;49099;28.428;-16.488;2023-05-23T11:04:27;15.07;;;3.47;;
63008;SDS011;49099;28.428;-16.488;2023-05-23T11:06:55;13.45;;;3.30;;
63008;SDS011;49099;28.428;-16.488;2023-05-23T11:09:23;12.52;;;3.00;;
63008;SDS011;49099;28.428;-16.488;2023-05-23T11:20:02;15.07;;;3.05;;
63008;SDS011;49099;28.428;-16.488;2023-05-23T11:22:35;12.30;;;3.08;;
63008;SDS011;49099;28.428;-16.488;2023-05-23T11:25:08;13.27;;;3.33;;
63008;SDS011;49099;28.428;-16.488;2023-05-23T11:27:36;12.82;;;3.05;;
63008;SDS011;49099;28.428;-16.488;2023-05-23T11:30:06;14.50;;;3.05;;
63008;SDS011;49099;28.428;-16.488;2023-05-23T11:32:41;20.13;;;3.53;;
63008;SDS011;49099;28.428;-16.488;2023-05-23T11:35:15;11.68;;;3.10;;
63008;SDS011;49099;28.428;-16.488;2023-05-23T11:37:43;13.27;;;2.90;;
63008;SDS011;49099;28.428;-16.488;2023-05-23T11:40:27;12.68;;;2.92;;
63008;SDS011;49099;28.428;-16.488;2023-05-23T11:42:55;11.85;;;3.10;;
63008;SDS011;49099;28.428;-16.488;2023-05-23T11:45:23;10.07;;;2.83;;
63008;SDS011;49099;28.428;-16.488;2023-05-23T11:47:52;16.88;;;3.22;;
63008;SDS011;49099;28.428;-16.488;2023-05-23T11:50:19;13.38;;;3.13;;
63008;SDS011;49099;28.428;-16.488;2023-05-23T11:52:47;15.95;;;3.55;;
63008;SDS011;49099;28.428;-16.488;2023-05-23T11:55:20;12.43;;;3.05;;
63008;SDS011;49099;28.428;-16.488;2023-05-23T11:57:49;11.43;;;3.25;;
63008;SDS011;49099;28.428;-16.488;2023-05-23T12:00:17;11.55;;;3.15;;
63008;SDS011;49099;28.428;-16.488;2023-05-23T12:02:45;9.93;;;3.20;;
63008;SDS011;49099;28.428;-16.488;2023-05-23T12:05:16;11.90;;;2.95;;
63008;SDS011;49099;28.428;-16.488;2023-05-23T12:07:46;12.00;;;2.90;;
63008;SDS011;49099;28.428;-16.488;2023-05-23T12:10:15;12.32;;;3.17;;
63008;SDS011;49099;28.428;-16.488;2023-05-23T12:12:43;15.70;;;3.28;;
63008;SDS011;49099;28.428;-16.488;2023-05-23T12:15:11;13.95;;;2.97;;
63008;SDS011;49099;28.428;-16.488;2023-05-23T12:17:48;12.82;;;3.15;;
63008;SDS011;49099;28.428;-16.488;2023-05-23T12:20:16;15.52;;;3.60;;
63008;SDS011;49099;28.428;-16.488;2023-05-23T12:22:47;14.10;;;3.47;;
63008;SDS011;49099;28.428;-16.488;2023-05-23T12:25:14;12.02;;;3.42;;
63008;SDS011;49099;28.428;-16.488;2023-05-23T12:27:41;13.48;;;3.10;;
63008;SDS011;49099;28.428;-16.488;2023-05-23T12:30:10;13.60;;;3.20;;
63008;SDS011;49099;28.428;-16.488;2023-05-23T12:32:41;12.98;;;3.40;;
63008;SDS011;49099;28.428;-16.488;2023-05-23T12:35:10;14.15;;;3.30;;
63008;SDS011;49099;28.428;-16.488;2023-05-23T12:37:45;16.13;;;3.70;;
63008;SDS011;49099;28.428;-16.488;2023-05-23T12:40:12;12.57;;;3.67;;
63008;SDS011;49099;28.428;-16.488;2023-05-23T12:42:45;12.73;;;3.55;;
63008;SDS011;49099;28.428;-16.488;2023-05-23T12:45:19;16.30;;;3.72;;
63008;SDS011;49099;28.428;-16.488;2023-05-23T12:47:48;11.73;;;3.13;;
63008;SDS011;49099;28.428;-16.488;2023-05-23T12:50:19;15.50;;;3.75;;
63008;SDS011;49099;28.428;-16.488;2023-05-23T12:52:46;18.17;;;3.45;;
63008;SDS011;49099;28.428;-16.488;2023-05-23T12:55:14;16.27;;;3.60;;
63008;SDS011;49099;28.428;-16.488;2023-05-23T12:57:41;12.45;;;3.05;;
63008;SDS011;49099;28.428;-16.488;2023-05-23T13:00:09;16.33;;;3.80;;
63008;SDS011;49099;28.428;-16.488;2023-05-23T13:02:37;13.18;;;3.70;;
63008;SDS011;49099;28.428;-16.488;2023-05-23T13:05:05;13.40;;;3.30;;
63008;SDS011;49099;28.428;-16.488;2023-05-23T13:07:33;16.88;;;3.10;;
63008;SDS011;49099;28.428;-16.488;2023-05-23T13:10:00;10.57;;;2.90;;
63008;SDS011;49099;28.428;-16.488;2023-05-23T13:12:28;14.02;;;3.30;;
63008;SDS011;49099;28.428;-16.488;2023-05-23T13:14:56;13.52;;;3.20;;
63008;SDS011;49099;28.428;-16.488;2023-05-23T13:17:24;11.20;;;3.10;;
63008;SDS011;49099;28.428;-16.488;2023-05-23T13:19:51;15.40;;;3.30;;
63008;SDS011;49099;28.428;-16.488;2023-05-23T13:22:18;15.63;;;3.60;;
63008;SDS011;49099;28.428;-16.488;2023-05-23T13:24:45;15.32;;;3.45;;
63008;SDS011;49099;28.428;-16.488;2023-05-23T13:27:12;12.95;;;3.22;;
63008;SDS011;49099;28.428;-16.488;2023-05-23T13:29:39;13.95;;;3.30;;
63008;SDS011;49099;28.428;-16.488;2023-05-23T13:32:07;11.40;;;3.08;;
63008;SDS011;49099;28.428;-16.488;2023-05-23T13:34:34;12.48;;;3.25;;
63008;SDS011;49099;28.428;-16.488;2023-05-23T13:37:03;9.63;;;2.90;;
63008;SDS011;49099;28.428;-16.488;2023-05-23T13:39:31;11.77;;;3.10;;
63008;SDS011;49099;28.428;-16.488;2023-05-23T13:41:58;11.32;;;2.88;;
63008;SDS011;49099;28.428;-16.488;2023-05-23T13:44:25;13.55;;;3.15;;
63008;SDS011;49099;28.428;-16.488;2023-05-23T13:46:53;11.85;;;3.28;;
63008;SDS011;49099;28.428;-16.488;2023-05-23T13:49:21;11.70;;;2.97;;
63008;SDS011;49099;28.428;-16.488;2023-05-23T13:51:48;11.50;;;2.95;;
63008;SDS011;49099;28.428;-16.488;2023-05-23T13:54:15;12.27;;;2.83;;
63008;SDS011;49099;28.428;-16.488;2023-05-23T13:56:42;11.32;;;2.90;;
63008;SDS011;49099;28.428;-16.488;2023-05-23T13:59:10;14.73;;;2.97;;
63008;SDS011;49099;28.428;-16.488;2023-05-23T14:01:37;13.27;;;3.20;;
63008;SDS011;49099;28.428;-16.488;2023-05-23T14:04:04;11.77;;;3.15;;
63008;SDS011;49099;28.428;-16.488;2023-05-23T14:06:32;11.38;;;3.15;;
63008;SDS011;49099;28.428;-16.488;2023-05-23T14:08:59;15.27;;;3.08;;
63008;SDS011;49099;28.428;-16.488;2023-05-23T14:11:27;19.20;;;3.22;;
63008;SDS011;49099;28.428;-16.488;2023-05-23T14:13:54;13.57;;;2.80;;
63008;SDS011;49099;28.428;-16.488;2023-05-23T14:16:24;11.77;;;2.95;;
63008;SDS011;49099;28.428;-16.488;2023-05-23T14:18:51;16.38;;;3.00;;
63008;SDS011;49099;28.428;-16.488;2023-05-23T14:21:18;12.02;;;3.08;;
63008;SDS011;49099;28.428;-16.488;2023-05-23T14:23:45;10.30;;;2.95;;
63008;SDS011;49099;28.428;-16.488;2023-05-23T14:26:13;13.30;;;3.20;;
63008;SDS011;49099;28.428;-16.488;2023-05-23T14:28:40;12.07;;;2.88;;
63008;SDS011;49099;28.428;-16.488;2023-05-23T14:31:07;13.82;;;2.88;;
63008;SDS011;49099;28.428;-16.488;2023-05-23T14:33:34;15.07;;;3.00;;
63008;SDS011;49099;28.428;-16.488;2023-05-23T14:36:01;10.85;;;3.08;;
63008;SDS011;49099;28.428;-16.488;2023-05-23T14:38:29;12.45;;;3.05;;
63008;SDS011;49099;28.428;-16.488;2023-05-23T14:40:56;13.55;;;3.08;;
63008;SDS011;49099;28.428;-16.488;2023-05-23T14:43:24;11.82;;;3.47;;